createdAt,value
2018-07-23T00:03:31.361Z,10.70
2018-07-23T00:08:25.879Z,10.83
2018-07-23T00:13:20.111Z,11.47
2018-07-23T00:18:14.927Z,11.83
2018-07-23T00:23:10.444Z,11.17
2018-07-23T00:28:05.387Z,12.27
2018-07-23T00:33:00.659Z,11.43
2018-07-23T00:37:56.271Z,12.70
2018-07-23T00:42:51.662Z,12.27
2018-07-23T00:47:47.573Z,13.10
2018-07-23T00:52:43.003Z,13.77
2018-07-23T00:57:37.598Z,13.80
2018-07-23T01:02:33.162Z,13.17
2018-07-23T01:07:28.152Z,13.17
2018-07-23T01:12:27.467Z,13.33
2018-07-23T01:17:21.690Z,12.93
2018-07-23T01:22:16.118Z,13.73
2018-07-23T01:27:10.934Z,13.70
2018-07-23T01:32:12.625Z,13.23
2018-07-23T01:37:14.918Z,13.80
2018-07-23T01:42:16.909Z,14.20
2018-07-23T01:47:12.767Z,13.73
2018-07-23T01:52:07.657Z,14.67
2018-07-23T01:57:04.096Z,14.33
2018-07-23T02:01:59.056Z,14.10
2018-07-23T02:07:00.898Z,14.23
2018-07-23T02:11:59.564Z,14.33
2018-07-23T02:16:54.127Z,12.93
2018-07-23T02:21:49.605Z,14.30
2018-07-23T02:26:44.434Z,14.40
2018-07-23T02:31:47.647Z,14.37
2018-07-23T02:36:50.128Z,14.57
2018-07-23T02:41:45.111Z,14.17
2018-07-23T02:46:40.362Z,14.23
2018-07-23T02:51:57.969Z,14.80
2018-07-23T02:57:09.166Z,14.40
2018-07-23T03:02:07.624Z,13.67
2018-07-23T03:07:04.012Z,14.43
2018-07-23T03:11:59.672Z,14.83
2018-07-23T03:16:54.942Z,14.30
2018-07-23T03:21:49.878Z,13.67
2018-07-23T03:26:45.581Z,14.07
2018-07-23T03:31:41.101Z,14.33
2018-07-23T03:36:35.768Z,14.87
2018-07-23T03:46:54.451Z,13.70
2018-07-23T03:51:49.633Z,15.67
2018-07-23T03:56:44.765Z,14.13
2018-07-23T04:02:08.525Z,14.70
2018-07-23T04:07:11.913Z,14.07
2018-07-23T04:12:07.924Z,16.43
2018-07-23T04:17:06.623Z,16.73
2018-07-23T04:22:03.288Z,15.77
2018-07-23T04:26:59.745Z,15.40
2018-07-23T04:31:54.487Z,16.97
2018-07-23T04:36:49.476Z,15.17
2018-07-23T04:41:44.775Z,16.77
2018-07-23T04:46:40.484Z,15.10
2018-07-23T04:51:35.631Z,15.30
2018-07-23T04:56:31.979Z,16.87
2018-07-23T05:01:27.232Z,15.70
2018-07-23T05:06:22.598Z,14.47
2018-07-23T05:11:18.305Z,16.53
2018-07-23T05:16:13.144Z,15.37
2018-07-23T05:21:08.375Z,15.07
2018-07-23T05:26:11.911Z,13.73
2018-07-23T05:31:10.018Z,14.40
2018-07-23T05:36:05.895Z,12.73
2018-07-23T05:41:02.502Z,13.80
2018-07-23T05:45:57.523Z,11.83
2018-07-23T05:50:52.940Z,11.37
2018-07-23T05:55:47.968Z,11.53
2018-07-23T06:00:43.088Z,11.83
2018-07-23T06:05:39.175Z,11.50
2018-07-23T06:10:35.691Z,10.17
2018-07-23T06:15:46.552Z,12.73
2018-07-23T06:20:51.288Z,9.47
2018-07-23T06:25:46.465Z,9.80
2018-07-23T06:30:41.957Z,9.83
2018-07-23T06:35:37.127Z,7.83
2018-07-23T06:40:32.970Z,7.23
2018-07-23T06:45:27.671Z,8.97
2018-07-23T06:50:23.296Z,7.80
2018-07-23T06:55:18.427Z,7.47
2018-07-23T07:00:14.193Z,6.67
2018-07-23T07:05:10.423Z,7.50
2018-07-23T07:10:06.357Z,9.63
2018-07-23T07:15:03.159Z,6.00
2018-07-23T07:19:59.035Z,7.63
2018-07-23T07:24:54.862Z,6.70
2018-07-23T07:29:50.686Z,6.70
2018-07-23T07:34:46.487Z,5.77
2018-07-23T07:39:42.078Z,6.97
2018-07-23T07:44:38.003Z,5.73
2018-07-23T07:49:33.165Z,5.17
2018-07-23T07:54:28.308Z,4.90
2018-07-23T07:59:23.746Z,3.60
2018-07-23T08:04:18.816Z,4.37
2018-07-23T08:09:13.860Z,4.53
2018-07-23T08:14:10.561Z,4.43
2018-07-23T08:19:06.885Z,5.50
2018-07-23T08:24:02.830Z,2.83
2018-07-23T08:29:05.590Z,8.37
2018-07-23T08:34:00.781Z,3.20
2018-07-23T08:38:56.550Z,2.93
2018-07-23T08:43:53.050Z,3.77
2018-07-23T08:48:48.367Z,5.63
2018-07-23T08:53:44.202Z,4.30
2018-07-23T08:58:40.564Z,6.50
2018-07-23T09:03:38.260Z,8.97
2018-07-23T09:08:33.467Z,4.07
2018-07-23T09:13:29.226Z,4.10
2018-07-23T09:18:24.561Z,4.03
2018-07-23T09:23:20.037Z,3.90
2018-07-23T09:28:38.503Z,3.90
2018-07-23T09:33:59.196Z,4.10
2018-07-23T09:39:02.097Z,4.03
2018-07-23T09:43:57.164Z,5.63
2018-07-23T09:49:01.179Z,4.10
2018-07-23T09:54:03.969Z,4.10
2018-07-23T09:58:59.342Z,6.63
2018-07-23T10:03:54.559Z,3.97
2018-07-23T10:08:50.265Z,3.97
2018-07-23T10:13:45.528Z,5.37
2018-07-23T10:18:41.172Z,3.27
2018-07-23T10:23:36.317Z,3.72
2018-07-23T10:28:31.539Z,10.38
2018-07-23T10:33:28.866Z,3.80
2018-07-23T10:38:25.349Z,3.60
2018-07-23T10:43:21.039Z,4.47
2018-07-23T10:48:17.195Z,4.00
2018-07-23T10:53:13.968Z,3.13
2018-07-23T10:58:11.583Z,3.37
2018-07-23T11:03:07.550Z,3.87
2018-07-23T11:08:03.947Z,3.30
2018-07-23T11:13:00.260Z,2.83
2018-07-23T11:17:57.629Z,3.63
2018-07-23T11:22:53.944Z,3.30
2018-07-23T11:27:50.374Z,3.70
2018-07-23T11:32:45.614Z,3.70
2018-07-23T11:37:41.677Z,4.07
2018-07-23T11:42:37.179Z,4.23
2018-07-23T11:47:37.823Z,3.67
2018-07-23T11:52:33.242Z,3.50
2018-07-23T11:57:28.544Z,3.43
2018-07-23T12:02:23.810Z,3.63
2018-07-23T12:07:27.610Z,3.50
2018-07-23T12:12:23.541Z,3.80
2018-07-23T12:17:19.624Z,3.70
2018-07-23T12:22:15.096Z,3.73
2018-07-23T12:27:10.299Z,5.67
2018-07-23T12:32:07.797Z,4.07
2018-07-23T12:37:04.982Z,3.93
2018-07-23T12:42:00.398Z,3.60
2018-07-23T12:46:55.876Z,3.83
2018-07-23T12:52:00.514Z,3.27
2018-07-23T12:56:56.090Z,3.90
2018-07-23T13:01:51.208Z,3.70
2018-07-23T13:06:46.476Z,4.60
2018-07-23T13:11:41.554Z,4.03
2018-07-23T13:16:37.741Z,4.13
2018-07-23T13:21:32.962Z,4.33
2018-07-23T13:26:28.188Z,4.97
2018-07-23T13:31:23.522Z,3.63
2018-07-23T13:36:18.951Z,4.00
2018-07-23T13:41:14.085Z,4.43
2018-07-23T13:46:09.351Z,3.30
2018-07-23T13:51:04.661Z,3.80
2018-07-23T13:56:22.411Z,3.83
2018-07-23T14:01:24.513Z,3.43
2018-07-23T14:06:19.580Z,6.53
2018-07-23T14:11:15.772Z,3.57
2018-07-23T14:16:11.076Z,3.77
2018-07-23T14:21:06.749Z,11.23
2018-07-23T14:26:01.596Z,5.40
2018-07-23T14:30:56.825Z,17.73
2018-07-23T14:35:51.872Z,16.03
2018-07-23T14:40:49.125Z,7.97
2018-07-23T14:45:44.478Z,3.57
2018-07-23T14:50:40.053Z,3.87
2018-07-23T14:55:35.370Z,3.70
2018-07-23T15:00:32.649Z,3.60
2018-07-23T15:05:27.856Z,3.10
2018-07-23T15:10:23.714Z,4.60
2018-07-23T15:15:19.024Z,5.47
2018-07-23T15:20:14.323Z,6.80
2018-07-23T15:25:12.575Z,48.37
2018-07-23T15:30:08.223Z,25.80
2018-07-23T15:35:02.957Z,4.90
2018-07-23T15:39:57.887Z,4.47
2018-07-23T15:44:53.531Z,4.03
2018-07-23T15:49:48.932Z,39.13
2018-07-23T15:54:44.287Z,5.83
2018-07-23T15:59:41.231Z,11.27
2018-07-23T16:04:37.012Z,4.23
2018-07-23T16:09:32.232Z,3.60
2018-07-23T16:14:34.891Z,4.07
2018-07-23T16:19:30.399Z,3.83
2018-07-23T16:24:25.570Z,4.67
2018-07-23T16:29:21.141Z,3.03
2018-07-23T16:34:16.319Z,7.60
2018-07-23T16:39:20.369Z,3.40
2018-07-23T16:44:23.459Z,3.80
2018-07-23T16:49:18.747Z,10.10
2018-07-23T16:54:15.961Z,6.20
2018-07-23T16:59:11.437Z,3.90
2018-07-23T17:04:06.577Z,3.00
2018-07-23T17:09:08.806Z,3.10
2018-07-23T17:14:04.000Z,4.27
2018-07-23T17:19:00.193Z,4.07
2018-07-23T17:23:54.769Z,7.10
2018-07-23T17:28:50.204Z,4.63
2018-07-23T17:33:45.296Z,4.10
2018-07-23T17:38:40.635Z,3.17
2018-07-23T17:43:36.929Z,3.17
2018-07-23T17:48:39.403Z,2.93
2018-07-23T17:53:35.712Z,2.90
2018-07-23T17:58:30.176Z,3.50
2018-07-23T18:03:25.476Z,3.17
2018-07-23T18:08:20.708Z,3.30
2018-07-23T18:13:32.166Z,3.83
2018-07-23T18:18:49.832Z,4.33
2018-07-23T18:23:53.077Z,3.07
2018-07-23T18:28:48.289Z,2.90
2018-07-23T18:33:51.857Z,2.40
2018-07-23T18:38:46.935Z,3.03
2018-07-23T18:43:41.810Z,2.80
2018-07-23T18:49:46.088Z,2.93
2018-07-23T18:54:42.288Z,2.87
2018-07-23T18:59:45.070Z,3.33
2018-07-23T19:04:40.744Z,2.83
2018-07-23T19:09:36.403Z,3.37
2018-07-23T19:14:31.598Z,3.53
2018-07-23T19:19:26.830Z,3.30
2018-07-23T19:24:22.473Z,3.33
2018-07-23T19:29:17.589Z,2.80
2018-07-23T19:34:12.787Z,3.60
2018-07-23T19:39:09.065Z,8.50
2018-07-23T19:44:04.709Z,4.40
2018-07-23T19:48:59.971Z,3.20
2018-07-23T19:53:55.384Z,3.33
2018-07-23T19:58:50.557Z,3.00
2018-07-23T20:03:45.643Z,3.40
2018-07-23T20:08:42.864Z,3.30
2018-07-23T20:13:38.803Z,3.10
2018-07-23T20:18:34.172Z,2.97
2018-07-23T20:23:36.928Z,3.33
2018-07-23T20:28:35.309Z,3.13
2018-07-23T20:33:30.945Z,3.23
2018-07-23T20:38:28.684Z,3.10
2018-07-23T20:43:23.816Z,3.17
2018-07-23T20:48:19.542Z,3.50
2018-07-23T20:53:15.766Z,3.47
2018-07-23T20:58:11.435Z,3.17
2018-07-23T21:03:07.725Z,3.13
2018-07-23T21:08:04.027Z,4.20
2018-07-23T21:12:59.260Z,2.90
2018-07-23T21:17:54.787Z,3.37
2018-07-23T21:22:58.074Z,3.30
2018-07-23T21:27:53.757Z,3.70
2018-07-23T21:32:49.864Z,3.63
2018-07-23T21:37:45.639Z,3.17
2018-07-23T21:42:40.801Z,3.87
2018-07-23T21:47:36.806Z,3.70
2018-07-23T21:52:38.458Z,3.73
2018-07-23T21:57:33.558Z,3.47
2018-07-23T22:02:30.034Z,3.40
2018-07-23T22:07:25.745Z,3.50
2018-07-23T22:12:27.499Z,4.40
2018-07-23T22:17:23.710Z,4.23
2018-07-23T22:22:18.851Z,3.93
2018-07-23T22:27:14.049Z,3.40
2018-07-23T22:32:09.792Z,3.77
2018-07-23T22:37:29.047Z,3.70
2018-07-23T22:42:36.497Z,7.70
2018-07-23T22:47:34.553Z,3.87
2018-07-23T22:52:30.038Z,4.47
2018-07-23T22:57:25.051Z,4.40
2018-07-23T23:02:20.747Z,4.40
2018-07-23T23:07:16.155Z,4.23
2018-07-23T23:12:11.821Z,4.20
2018-07-23T23:17:11.231Z,3.90
2018-07-23T23:22:08.967Z,4.53
2018-07-23T23:27:06.390Z,4.17
2018-07-23T23:32:03.536Z,5.23
2018-07-23T23:36:58.871Z,5.10
2018-07-23T23:41:54.646Z,4.93
2018-07-23T23:46:54.590Z,4.27
2018-07-23T23:51:49.735Z,4.60
2018-07-23T23:56:45.139Z,5.13
